createdAt,value
2022-12-18T00:00:00.409Z,102600
2022-12-18T00:01:00.830Z,102600
2022-12-18T00:02:00.524Z,102610
2022-12-18T00:03:00.517Z,102610
2022-12-18T00:04:01.981Z,102600
2022-12-18T00:05:00.374Z,102600
2022-12-18T00:06:00.606Z,102610
2022-12-18T00:07:00.380Z,102610
2022-12-18T00:08:00.402Z,102610
2022-12-18T00:09:01.526Z,102610
2022-12-18T00:10:00.422Z,102620
2022-12-18T00:11:04.418Z,102620
2022-12-18T00:13:03.798Z,102630
2022-12-18T00:14:00.381Z,102620
2022-12-18T00:15:00.411Z,102620
2022-12-18T00:16:02.422Z,102620
2022-12-18T00:17:00.430Z,102620
2022-12-18T00:18:00.409Z,102610
2022-12-18T00:19:00.726Z,102610
2022-12-18T00:20:00.409Z,102620
2022-12-18T00:21:01.258Z,102620
2022-12-18T00:22:00.402Z,102610
2022-12-18T00:23:00.416Z,102610
2022-12-18T00:24:00.449Z,102610
2022-12-18T00:25:00.383Z,102610
2022-12-18T00:26:00.777Z,102610
2022-12-18T00:27:00.401Z,102610
2022-12-18T00:28:00.841Z,102610
2022-12-18T00:29:02.994Z,102610
2022-12-18T00:30:00.381Z,102600
2022-12-18T00:31:01.605Z,102600
2022-12-18T00:32:00.435Z,102600
2022-12-18T00:33:00.405Z,102600
2022-12-18T00:34:00.494Z,102600
2022-12-18T00:35:00.440Z,102600
2022-12-18T00:36:01.909Z,102600
2022-12-18T00:37:00.404Z,102600
2022-12-18T00:38:00.409Z,102600
2022-12-18T00:39:02.285Z,102600
2022-12-18T00:40:00.540Z,102600
2022-12-18T00:41:00.746Z,102600
2022-12-18T00:42:00.404Z,102600
2022-12-18T00:43:00.398Z,102600
2022-12-18T00:44:00.588Z,102600
2022-12-18T00:45:00.406Z,102600
2022-12-18T00:46:00.489Z,102600
2022-12-18T00:47:00.385Z,102600
2022-12-18T00:48:00.401Z,102600
2022-12-18T00:49:00.384Z,102600
2022-12-18T00:50:00.382Z,102600
2022-12-18T00:51:00.375Z,102600
2022-12-18T00:52:00.433Z,102600
2022-12-18T00:53:00.407Z,102600
2022-12-18T00:54:00.403Z,102600
2022-12-18T00:55:05.862Z,102600
2022-12-18T00:56:00.403Z,102600
2022-12-18T00:57:00.378Z,102600
2022-12-18T00:58:00.412Z,102600
2022-12-18T00:59:00.406Z,102600
2022-12-18T01:00:00.642Z,102600
2022-12-18T01:01:00.502Z,102600
2022-12-18T01:02:00.537Z,102590
2022-12-18T01:03:00.467Z,102590
2022-12-18T01:04:01.026Z,102590
2022-12-18T01:05:00.399Z,102590
2022-12-18T01:06:05.102Z,102600
2022-12-18T01:07:00.449Z,102600
2022-12-18T01:08:00.382Z,102600
2022-12-18T01:09:00.430Z,102600
2022-12-18T01:10:00.379Z,102600
2022-12-18T01:11:00.701Z,102600
2022-12-18T01:12:00.459Z,102600
2022-12-18T01:13:00.379Z,102600
2022-12-18T01:14:00.665Z,102610
2022-12-18T01:15:00.436Z,102610
2022-12-18T01:16:00.444Z,102620
2022-12-18T01:17:00.384Z,102620
2022-12-18T01:18:00.403Z,102620
2022-12-18T01:19:00.399Z,102620
2022-12-18T01:20:00.401Z,102620
2022-12-18T01:21:00.390Z,102620
2022-12-18T01:22:00.403Z,102620
2022-12-18T01:23:00.405Z,102620
2022-12-18T01:24:00.550Z,102620
2022-12-18T01:25:00.776Z,102620
2022-12-18T01:26:08.732Z,102620
2022-12-18T01:27:00.377Z,102620
2022-12-18T01:28:00.407Z,102620
2022-12-18T01:29:00.376Z,102620
2022-12-18T01:30:00.440Z,102620
2022-12-18T01:31:10.336Z,102620
2022-12-18T01:32:00.427Z,102620
2022-12-18T01:33:00.433Z,102620
2022-12-18T01:34:00.908Z,102620
2022-12-18T01:35:00.370Z,102620
2022-12-18T01:36:00.405Z,102610
2022-12-18T01:37:02.135Z,102610
2022-12-18T01:38:00.406Z,102610
2022-12-18T01:39:01.329Z,102610
2022-12-18T01:40:00.396Z,102600
2022-12-18T01:41:00.755Z,102600
2022-12-18T01:42:02.571Z,102610
2022-12-18T01:43:00.471Z,102610
2022-12-18T01:44:00.398Z,102600
2022-12-18T01:45:10.313Z,102600
2022-12-18T01:46:00.459Z,102600
2022-12-18T01:47:00.410Z,102600
2022-12-18T01:48:03.184Z,102600
2022-12-18T01:49:01.135Z,102600
2022-12-18T01:50:02.755Z,102600
2022-12-18T01:51:00.907Z,102600
2022-12-18T01:52:00.421Z,102600
2022-12-18T01:53:05.474Z,102600
2022-12-18T01:54:00.416Z,102600
2022-12-18T01:55:01.628Z,102600
2022-12-18T01:56:00.481Z,102600
2022-12-18T01:57:00.423Z,102600
2022-12-18T01:58:00.915Z,102590
2022-12-18T01:59:02.551Z,102590
2022-12-18T02:00:02.500Z,102600
2022-12-18T02:01:00.502Z,102600
2022-12-18T02:02:01.262Z,102600
2022-12-18T02:03:00.506Z,102600
2022-12-18T02:04:10.336Z,102600
2022-12-18T02:05:00.669Z,102600
2022-12-18T02:06:10.116Z,102600
2022-12-18T02:07:10.338Z,102600
2022-12-18T02:08:10.338Z,102610
2022-12-18T02:09:10.337Z,102610
2022-12-18T02:10:10.347Z,102600
2022-12-18T02:11:10.321Z,102600
2022-12-18T02:12:01.391Z,102600
2022-12-18T02:13:00.386Z,102600
2022-12-18T02:14:10.341Z,102600
2022-12-18T02:15:06.399Z,102600
2022-12-18T02:16:01.441Z,102600
2022-12-18T02:17:10.311Z,102600
2022-12-18T02:18:07.672Z,102600
2022-12-18T02:19:03.773Z,102600
2022-12-18T02:20:10.342Z,102600
2022-12-18T02:21:10.311Z,102600
2022-12-18T02:22:10.348Z,102590
2022-12-18T02:23:01.447Z,102590
2022-12-18T02:24:10.342Z,102600
2022-12-18T02:25:10.311Z,102600
2022-12-18T02:26:10.323Z,102600
2022-12-18T02:27:04.668Z,102600
2022-12-18T02:28:01.499Z,102600
2022-12-18T02:29:04.917Z,102600
2022-12-18T02:30:01.015Z,102600
2022-12-18T02:31:02.728Z,102600
2022-12-18T02:32:02.760Z,102600
2022-12-18T02:33:02.161Z,102600
2022-12-18T02:34:02.584Z,102600
2022-12-18T02:35:02.253Z,102600
2022-12-18T02:36:01.559Z,102590
2022-12-18T02:37:02.239Z,102590
2022-12-18T02:38:01.625Z,102600
2022-12-18T02:39:01.453Z,102600
2022-12-18T02:40:00.963Z,102590
2022-12-18T02:41:00.712Z,102590
2022-12-18T02:42:01.288Z,102590
2022-12-18T02:43:10.337Z,102590
2022-12-18T02:44:01.093Z,102590
2022-12-18T02:45:00.437Z,102590
2022-12-18T02:46:01.209Z,102590
2022-12-18T02:47:00.932Z,102590
2022-12-18T02:48:00.904Z,102590
2022-12-18T02:49:05.534Z,102590
2022-12-18T02:50:00.368Z,102590
2022-12-18T02:51:00.368Z,102590
2022-12-18T02:52:10.331Z,102590
2022-12-18T02:53:10.333Z,102590
2022-12-18T02:54:10.342Z,102580
2022-12-18T02:55:01.381Z,102580
2022-12-18T02:56:03.681Z,102580
2022-12-18T02:57:04.294Z,102580
2022-12-18T02:58:03.658Z,102570
2022-12-18T02:59:00.392Z,102570
2022-12-18T03:00:07.829Z,102570
2022-12-18T03:01:03.563Z,102570
2022-12-18T03:02:05.957Z,102570
2022-12-18T03:03:05.295Z,102570
2022-12-18T03:04:04.103Z,102570
2022-12-18T03:05:07.596Z,102570
2022-12-18T03:06:04.261Z,102570
2022-12-18T03:07:03.196Z,102570
2022-12-18T03:08:06.218Z,102570
2022-12-18T03:09:04.763Z,102570
2022-12-18T03:10:00.994Z,102570
2022-12-18T03:11:02.939Z,102570
2022-12-18T03:12:04.257Z,102570
2022-12-18T03:13:04.486Z,102570
2022-12-18T03:14:00.880Z,102580
2022-12-18T03:15:15.938Z,102580
2022-12-18T03:16:01.305Z,102570
2022-12-18T03:17:02.147Z,102570
2022-12-18T03:18:04.538Z,102570
2022-12-18T03:19:03.044Z,102570
2022-12-18T03:20:07.510Z,102570
2022-12-18T03:21:02.813Z,102570
2022-12-18T03:22:01.998Z,102570
2022-12-18T03:23:04.168Z,102570
2022-12-18T03:24:01.421Z,102570
2022-12-18T03:25:02.772Z,102570
2022-12-18T03:26:07.484Z,102570
2022-12-18T03:27:02.422Z,102570
2022-12-18T03:28:02.042Z,102560
2022-12-18T03:29:04.330Z,102560
2022-12-18T03:30:02.873Z,102560
2022-12-18T03:31:01.094Z,102560
2022-12-18T03:32:04.318Z,102570
2022-12-18T03:33:00.668Z,102570
2022-12-18T03:34:04.055Z,102560
2022-12-18T03:35:03.060Z,102560
2022-12-18T03:36:00.765Z,102560
2022-12-18T03:37:01.078Z,102560
2022-12-18T03:38:00.629Z,102560
2022-12-18T03:39:00.500Z,102560
2022-12-18T03:40:00.588Z,102560
2022-12-18T03:41:07.717Z,102560
2022-12-18T03:42:04.935Z,102560
2022-12-18T03:43:08.180Z,102560
2022-12-18T03:44:10.306Z,102560
2022-12-18T03:45:06.403Z,102560
2022-12-18T03:46:06.759Z,102550
2022-12-18T03:47:05.289Z,102550
2022-12-18T03:48:04.120Z,102540
2022-12-18T03:49:08.470Z,102540
2022-12-18T03:50:12.844Z,102540
2022-12-18T03:51:04.959Z,102540
2022-12-18T03:52:04.306Z,102540
2022-12-18T03:53:06.555Z,102540
2022-12-18T03:54:02.541Z,102540
2022-12-18T03:55:01.792Z,102540
2022-12-18T03:56:01.898Z,102530
2022-12-18T03:57:04.718Z,102530
2022-12-18T03:58:01.720Z,102530
2022-12-18T03:59:02.214Z,102530
2022-12-18T04:00:02.904Z,102530
2022-12-18T04:01:02.055Z,102530
2022-12-18T04:02:01.783Z,102520
2022-12-18T04:03:01.511Z,102520
2022-12-18T04:04:01.259Z,102530
2022-12-18T04:05:02.134Z,102530
2022-12-18T04:06:01.558Z,102520
2022-12-18T04:07:01.350Z,102520
2022-12-18T04:08:01.118Z,102520
2022-12-18T04:09:00.513Z,102520
2022-12-18T04:10:02.213Z,102520
2022-12-18T04:11:00.808Z,102520
2022-12-18T04:12:00.405Z,102520
2022-12-18T04:13:00.404Z,102520
2022-12-18T04:14:01.950Z,102520
2022-12-18T04:15:00.409Z,102520
2022-12-18T04:16:00.551Z,102510
2022-12-18T04:17:00.394Z,102510
2022-12-18T04:18:00.392Z,102510
2022-12-18T04:19:00.406Z,102510
2022-12-18T04:20:00.418Z,102500
2022-12-18T04:21:00.378Z,102500
2022-12-18T04:22:00.403Z,102500
2022-12-18T04:23:00.368Z,102500
2022-12-18T04:24:00.383Z,102500
2022-12-18T04:25:00.396Z,102500
2022-12-18T04:26:00.390Z,102500
2022-12-18T04:27:00.367Z,102500
2022-12-18T04:28:00.375Z,102500
2022-12-18T04:29:00.374Z,102500
2022-12-18T04:30:00.505Z,102510
2022-12-18T04:31:00.433Z,102510
2022-12-18T04:32:00.550Z,102500
2022-12-18T04:33:00.483Z,102500
2022-12-18T04:34:00.461Z,102500
2022-12-18T04:35:00.430Z,102500
2022-12-18T04:36:00.414Z,102500
2022-12-18T04:37:00.410Z,102500
2022-12-18T04:38:00.402Z,102500
2022-12-18T04:39:00.397Z,102500
2022-12-18T04:40:00.399Z,102500
2022-12-18T04:41:00.381Z,102500
2022-12-18T04:42:00.375Z,102500
2022-12-18T04:43:00.549Z,102500
2022-12-18T04:44:00.375Z,102510
2022-12-18T04:45:00.375Z,102510
2022-12-18T04:46:02.726Z,102510
2022-12-18T04:47:00.419Z,102510
2022-12-18T04:48:00.920Z,102510
2022-12-18T04:49:00.400Z,102510
2022-12-18T04:50:00.422Z,102510
2022-12-18T04:51:00.403Z,102510
2022-12-18T04:52:00.382Z,102520
2022-12-18T04:53:00.377Z,102520
2022-12-18T04:54:00.384Z,102530
2022-12-18T04:55:00.383Z,102530
2022-12-18T04:56:02.216Z,102520
2022-12-18T04:57:00.430Z,102520
2022-12-18T04:58:00.405Z,102520
2022-12-18T04:59:00.410Z,102520
2022-12-18T05:00:00.386Z,102520
2022-12-18T05:01:00.601Z,102520
2022-12-18T05:02:00.538Z,102530
2022-12-18T05:03:00.995Z,102530
2022-12-18T05:04:00.794Z,102530
2022-12-18T05:05:00.422Z,102530
2022-12-18T05:06:00.418Z,102530
2022-12-18T05:07:00.403Z,102530
2022-12-18T05:08:00.530Z,102540
2022-12-18T05:09:00.408Z,102540
2022-12-18T05:10:00.411Z,102540
2022-12-18T05:11:05.223Z,102540
2022-12-18T05:12:00.436Z,102550
2022-12-18T05:13:01.375Z,102550
2022-12-18T05:14:00.372Z,102560
2022-12-18T05:15:00.385Z,102560
2022-12-18T05:16:00.874Z,102560
2022-12-18T05:17:01.219Z,102560
2022-12-18T05:18:00.684Z,102560
2022-12-18T05:19:00.380Z,102560
2022-12-18T05:20:00.419Z,102560
2022-12-18T05:21:00.681Z,102560
2022-12-18T05:22:00.403Z,102560
2022-12-18T05:23:00.384Z,102560
2022-12-18T05:24:00.412Z,102560
2022-12-18T05:25:00.375Z,102560
2022-12-18T05:26:01.778Z,102560
2022-12-18T05:27:00.382Z,102560
2022-12-18T05:28:00.381Z,102560
2022-12-18T05:29:00.412Z,102560
2022-12-18T05:30:00.370Z,102560
2022-12-18T05:31:01.208Z,102560
2022-12-18T05:32:00.377Z,102560
2022-12-18T05:33:00.375Z,102560
2022-12-18T05:34:00.421Z,102550
2022-12-18T05:35:00.406Z,102550
2022-12-18T05:36:01.440Z,102550
2022-12-18T05:37:00.421Z,102550
2022-12-18T05:38:00.397Z,102540
2022-12-18T05:39:00.402Z,102540
2022-12-18T05:40:00.723Z,102540
2022-12-18T05:41:00.396Z,102540
2022-12-18T05:42:00.377Z,102540
2022-12-18T05:43:00.417Z,102540
2022-12-18T05:44:00.491Z,102540
2022-12-18T05:45:00.415Z,102540
2022-12-18T05:46:03.288Z,102540
2022-12-18T05:47:00.442Z,102540
2022-12-18T05:48:00.398Z,102530
2022-12-18T05:49:00.412Z,102530
2022-12-18T05:50:00.497Z,102520
2022-12-18T05:51:08.980Z,102520
2022-12-18T05:52:00.375Z,102520
2022-12-18T05:53:00.395Z,102520
2022-12-18T05:54:00.400Z,102520
2022-12-18T05:55:00.405Z,102520
2022-12-18T05:56:01.968Z,102530
2022-12-18T05:57:00.411Z,102530
2022-12-18T05:58:00.580Z,102530
2022-12-18T05:59:00.384Z,102530
2022-12-18T06:00:00.416Z,102520
2022-12-18T06:01:09.327Z,102520
2022-12-18T06:02:00.561Z,102520
2022-12-18T06:03:00.724Z,102520
2022-12-18T06:04:00.502Z,102520
2022-12-18T06:05:00.396Z,102520
2022-12-18T06:06:00.423Z,102510
2022-12-18T06:07:00.374Z,102510
2022-12-18T06:08:00.411Z,102510
2022-12-18T06:09:00.432Z,102510
2022-12-18T06:10:00.423Z,102500
2022-12-18T06:11:00.376Z,102500
2022-12-18T06:12:00.397Z,102500
2022-12-18T06:13:00.560Z,102500
2022-12-18T06:14:00.758Z,102500
2022-12-18T06:15:00.409Z,102500
2022-12-18T06:16:02.036Z,102490
2022-12-18T06:17:00.395Z,102490
2022-12-18T06:18:00.840Z,102490
2022-12-18T06:19:01.214Z,102490
2022-12-18T06:20:00.522Z,102490
2022-12-18T06:21:00.424Z,102490
2022-12-18T06:22:00.409Z,102490
2022-12-18T06:23:00.393Z,102490
2022-12-18T06:24:00.532Z,102500
2022-12-18T06:25:00.594Z,102500
2022-12-18T06:26:10.310Z,102500
2022-12-18T06:27:00.397Z,102500
2022-12-18T06:28:00.406Z,102500
2022-12-18T06:29:00.380Z,102500
2022-12-18T06:30:00.711Z,102500
2022-12-18T06:31:00.411Z,102500
2022-12-18T06:32:00.408Z,102500
2022-12-18T06:33:00.411Z,102500
2022-12-18T06:34:02.166Z,102500
2022-12-18T06:35:00.398Z,102500
2022-12-18T06:36:01.719Z,102500
2022-12-18T06:37:00.381Z,102500
2022-12-18T06:38:00.958Z,102500
2022-12-18T06:39:00.369Z,102500
2022-12-18T06:40:00.417Z,102500
2022-12-18T06:41:00.406Z,102500
2022-12-18T06:42:00.409Z,102500
2022-12-18T06:43:00.375Z,102500
2022-12-18T06:44:00.423Z,102500
2022-12-18T06:45:00.414Z,102500
2022-12-18T06:46:01.164Z,102490
2022-12-18T06:47:00.396Z,102490
2022-12-18T06:48:00.480Z,102500
2022-12-18T06:49:00.375Z,102500
2022-12-18T06:50:00.416Z,102490
2022-12-18T06:51:00.650Z,102490
2022-12-18T06:52:00.376Z,102490
2022-12-18T06:53:00.394Z,102490
2022-12-18T06:54:00.741Z,102490
2022-12-18T06:55:00.407Z,102490
2022-12-18T06:56:05.082Z,102490
2022-12-18T06:57:00.405Z,102490
2022-12-18T06:58:00.371Z,102490
2022-12-18T06:59:00.498Z,102490
2022-12-18T07:00:00.450Z,102490
2022-12-18T07:01:01.336Z,102490
2022-12-18T07:02:00.516Z,102490
2022-12-18T07:03:00.480Z,102490
2022-12-18T07:04:00.991Z,102480
2022-12-18T07:05:02.754Z,102480
2022-12-18T07:06:00.400Z,102480
2022-12-18T07:07:00.401Z,102480
2022-12-18T07:08:00.372Z,102470
2022-12-18T07:09:00.403Z,102470
2022-12-18T07:10:00.450Z,102470
2022-12-18T07:11:03.030Z,102470
2022-12-18T07:12:00.421Z,102470
2022-12-18T07:13:00.379Z,102470
2022-12-18T07:14:00.390Z,102470
2022-12-18T07:15:00.421Z,102470
2022-12-18T07:16:06.104Z,102470
2022-12-18T07:17:00.577Z,102470
2022-12-18T07:18:00.386Z,102460
2022-12-18T07:19:00.377Z,102460
2022-12-18T07:20:00.379Z,102460
2022-12-18T07:21:08.965Z,102460
2022-12-18T07:22:00.591Z,102460
2022-12-18T07:23:02.007Z,102460
2022-12-18T07:24:00.408Z,102450
2022-12-18T07:25:00.465Z,102450
2022-12-18T07:26:04.389Z,102460
2022-12-18T07:27:00.423Z,102460
2022-12-18T07:28:00.484Z,102450
2022-12-18T07:29:00.399Z,102450
2022-12-18T07:30:00.396Z,102460
2022-12-18T07:31:09.557Z,102460
2022-12-18T07:32:00.445Z,102460
2022-12-18T07:33:00.401Z,102460
2022-12-18T07:34:00.413Z,102450
2022-12-18T07:35:00.375Z,102450
2022-12-18T07:36:00.883Z,102450
2022-12-18T07:37:00.748Z,102450
2022-12-18T07:38:00.370Z,102450
2022-12-18T07:39:00.395Z,102450
2022-12-18T07:40:00.367Z,102440
2022-12-18T07:41:02.556Z,102440
2022-12-18T07:42:00.398Z,102440
2022-12-18T07:43:00.399Z,102440
2022-12-18T07:44:00.378Z,102440
2022-12-18T07:45:00.794Z,102440
2022-12-18T07:46:00.730Z,102430
2022-12-18T07:47:00.400Z,102430
2022-12-18T07:48:00.417Z,102430
2022-12-18T07:49:00.369Z,102430
2022-12-18T07:50:00.405Z,102430
2022-12-18T07:51:02.673Z,102430
2022-12-18T07:52:00.376Z,102420
2022-12-18T07:53:00.403Z,102420
2022-12-18T07:54:00.375Z,102410
2022-12-18T07:55:00.437Z,102410
2022-12-18T07:57:00.542Z,102410
2022-12-18T07:58:01.372Z,102410
2022-12-18T07:59:00.631Z,102410
2022-12-18T08:00:00.405Z,102410
2022-12-18T08:01:04.288Z,102410
2022-12-18T08:02:00.794Z,102400
2022-12-18T08:03:00.674Z,102400
2022-12-18T08:04:00.403Z,102400
2022-12-18T08:05:00.412Z,102400
2022-12-18T08:06:01.198Z,102390
2022-12-18T08:07:00.386Z,102390
2022-12-18T08:08:00.375Z,102390
2022-12-18T08:09:00.554Z,102390
2022-12-18T08:10:00.388Z,102390
2022-12-18T08:11:00.445Z,102390
2022-12-18T08:12:00.398Z,102400
2022-12-18T08:13:04.856Z,102400
2022-12-18T08:14:00.414Z,102400
2022-12-18T08:15:00.416Z,102400
2022-12-18T08:16:01.861Z,102400
2022-12-18T08:17:00.568Z,102400
2022-12-18T08:18:00.404Z,102390
2022-12-18T08:19:00.452Z,102390
2022-12-18T08:20:00.375Z,102400
2022-12-18T08:21:10.348Z,102400
2022-12-18T08:22:00.427Z,102390
2022-12-18T08:23:00.372Z,102390
2022-12-18T08:24:00.832Z,102400
2022-12-18T08:25:00.400Z,102400
2022-12-18T08:26:00.397Z,102400
2022-12-18T08:27:28.429Z,102400
2022-12-18T08:28:00.401Z,102410
2022-12-18T08:29:00.521Z,102410
2022-12-18T08:30:00.685Z,102410
2022-12-18T08:31:00.636Z,102410
2022-12-18T08:32:00.428Z,102410
2022-12-18T08:33:00.426Z,102410
2022-12-18T08:34:00.375Z,102410
2022-12-18T08:35:00.468Z,102410
2022-12-18T08:36:00.943Z,102410
2022-12-18T08:37:00.571Z,102410
2022-12-18T08:38:00.375Z,102400
2022-12-18T08:39:00.421Z,102400
2022-12-18T08:40:00.420Z,102400
2022-12-18T08:41:00.826Z,102400
2022-12-18T08:42:04.146Z,102410
2022-12-18T08:43:00.372Z,102410
2022-12-18T08:44:00.380Z,102420
2022-12-18T08:45:00.501Z,102420
2022-12-18T08:46:00.623Z,102420
2022-12-18T08:47:00.367Z,102420
2022-12-18T08:48:00.395Z,102420
2022-12-18T08:49:00.385Z,102420
2022-12-18T08:50:00.412Z,102410
2022-12-18T08:51:00.406Z,102410
2022-12-18T08:52:00.427Z,102390
2022-12-18T08:53:00.614Z,102390
2022-12-18T08:54:00.610Z,102380
2022-12-18T08:55:00.411Z,102380
2022-12-18T08:56:00.370Z,102380
2022-12-18T08:57:00.374Z,102380
2022-12-18T08:58:00.406Z,102380
2022-12-18T08:59:00.439Z,102380
2022-12-18T09:00:00.526Z,102390
2022-12-18T09:01:01.128Z,102390
2022-12-18T09:02:00.559Z,102400
2022-12-18T09:03:00.454Z,102400
2022-12-18T09:04:00.378Z,102390
2022-12-18T09:05:00.392Z,102390
2022-12-18T09:06:00.778Z,102380
2022-12-18T09:07:00.369Z,102380
2022-12-18T09:08:00.373Z,102380
2022-12-18T09:09:00.403Z,102380
2022-12-18T09:10:00.425Z,102380
2022-12-18T09:11:00.376Z,102380
2022-12-18T09:12:00.495Z,102390
2022-12-18T09:13:00.417Z,102390
2022-12-18T09:14:00.972Z,102390
2022-12-18T09:15:00.422Z,102390
2022-12-18T09:16:03.012Z,102390
2022-12-18T09:17:00.449Z,102390
2022-12-18T09:18:00.379Z,102390
2022-12-18T09:19:00.962Z,102390
2022-12-18T09:20:00.404Z,102380
2022-12-18T09:21:06.823Z,102380
2022-12-18T09:22:00.402Z,102390
2022-12-18T09:23:00.370Z,102390
2022-12-18T09:24:00.380Z,102390
2022-12-18T09:25:00.394Z,102390
2022-12-18T09:26:00.379Z,102390
2022-12-18T09:27:00.437Z,102390
2022-12-18T09:28:00.400Z,102400
2022-12-18T09:29:00.401Z,102400
2022-12-18T09:30:00.943Z,102400
2022-12-18T09:31:03.935Z,102400
2022-12-18T09:32:00.378Z,102410
2022-12-18T09:33:00.378Z,102410
2022-12-18T09:34:00.397Z,102400
2022-12-18T09:35:00.408Z,102400
2022-12-18T09:36:01.469Z,102410
2022-12-18T09:37:00.399Z,102410
2022-12-18T09:38:00.397Z,102400
2022-12-18T09:39:03.853Z,102400
2022-12-18T09:40:00.404Z,102400
2022-12-18T09:41:05.195Z,102400
2022-12-18T09:42:00.560Z,102390
2022-12-18T09:43:03.162Z,102390
2022-12-18T09:44:02.666Z,102380
2022-12-18T09:45:01.049Z,102380
2022-12-18T09:46:03.159Z,102380
2022-12-18T09:47:10.330Z,102380
2022-12-18T09:48:00.583Z,102380
2022-12-18T09:49:02.589Z,102380
2022-12-18T09:50:03.667Z,102380
2022-12-18T09:51:03.968Z,102380
2022-12-18T09:52:03.650Z,102380
2022-12-18T09:53:04.910Z,102380
2022-12-18T09:54:05.587Z,102370
2022-12-18T09:55:05.410Z,102370
2022-12-18T09:56:03.055Z,102370
2022-12-18T09:57:00.415Z,102370
2022-12-18T09:58:05.670Z,102360
2022-12-18T09:59:01.521Z,102360
2022-12-18T10:00:10.348Z,102350
2022-12-18T10:01:00.500Z,102350
2022-12-18T10:02:02.251Z,102350
2022-12-18T10:03:08.716Z,102350
2022-12-18T10:04:00.489Z,102350
2022-12-18T10:05:03.406Z,102350
2022-12-18T10:06:10.335Z,102350
2022-12-18T10:07:09.187Z,102350
2022-12-18T10:08:01.384Z,102350
2022-12-18T10:09:00.384Z,102350
2022-12-18T10:10:06.516Z,102350
2022-12-18T10:11:10.335Z,102350
2022-12-18T10:12:00.372Z,102350
2022-12-18T10:13:07.236Z,102350
2022-12-18T10:14:06.694Z,102350
2022-12-18T10:15:06.355Z,102350
2022-12-18T10:16:08.181Z,102350
2022-12-18T10:17:10.307Z,102350
2022-12-18T10:18:10.332Z,102350
2022-12-18T10:19:10.336Z,102350
2022-12-18T10:20:10.331Z,102350
2022-12-18T10:21:06.004Z,102350
2022-12-18T10:22:10.279Z,102350
2022-12-18T10:27:10.582Z,102350
2022-12-18T10:28:08.581Z,102350
2022-12-18T10:29:05.524Z,102350
2022-12-18T10:30:00.984Z,102350
2022-12-18T10:31:00.733Z,102350
2022-12-18T10:32:00.592Z,102350
2022-12-18T10:33:02.138Z,102350
2022-12-18T10:34:00.583Z,102350
2022-12-18T10:35:01.137Z,102350
2022-12-18T10:36:00.603Z,102340
2022-12-18T10:37:01.613Z,102340
2022-12-18T10:38:05.698Z,102340
2022-12-18T10:39:10.547Z,102340
2022-12-18T10:40:10.548Z,102340
2022-12-18T10:41:02.012Z,102340
2022-12-18T10:42:10.524Z,102330
2022-12-18T10:43:03.844Z,102330
2022-12-18T10:44:10.547Z,102320
2022-12-18T10:45:03.269Z,102320
2022-12-18T10:46:07.954Z,102310
2022-12-18T10:47:08.742Z,102310
2022-12-18T10:48:00.668Z,102310
2022-12-18T10:49:00.641Z,102310
2022-12-18T10:50:00.867Z,102300
2022-12-18T10:51:12.991Z,102300
2022-12-18T10:52:10.522Z,102290
2022-12-18T10:53:03.082Z,102290
2022-12-18T10:54:01.957Z,102290
2022-12-18T10:55:02.341Z,102290
2022-12-18T10:56:02.074Z,102290
2022-12-18T10:57:10.547Z,102290
2022-12-18T10:58:10.521Z,102290
2022-12-18T10:59:03.670Z,102290
2022-12-18T11:00:10.527Z,102280
2022-12-18T11:01:03.722Z,102280
2022-12-18T11:02:00.722Z,102290
2022-12-18T11:03:00.842Z,102290
2022-12-18T11:04:02.939Z,102280
2022-12-18T11:05:00.725Z,102280
2022-12-18T11:06:03.173Z,102270
2022-12-18T11:07:03.239Z,102270
2022-12-18T11:08:01.147Z,102270
2022-12-18T11:09:05.371Z,102270
2022-12-18T11:10:01.295Z,102270
2022-12-18T11:11:00.873Z,102270
2022-12-18T11:12:03.639Z,102270
2022-12-18T11:13:10.520Z,102270
2022-12-18T11:14:02.322Z,102270
2022-12-18T11:15:00.660Z,102270
2022-12-18T11:16:00.893Z,102270
2022-12-18T11:17:25.569Z,102270
2022-12-18T11:18:00.620Z,102260
2022-12-18T11:19:10.527Z,102260
2022-12-18T11:20:02.678Z,102270
2022-12-18T11:21:06.152Z,102270
2022-12-18T11:22:01.705Z,102260
2022-12-18T11:23:02.547Z,102260
2022-12-18T11:24:00.647Z,102260
2022-12-18T11:25:32.147Z,102260
2022-12-18T11:26:03.440Z,102260
2022-12-18T11:27:02.362Z,102260
2022-12-18T11:28:02.180Z,102260
2022-12-18T11:29:09.987Z,102260
2022-12-18T11:30:09.826Z,102250
2022-12-18T11:31:10.565Z,102250
2022-12-18T11:32:10.522Z,102240
2022-12-18T11:33:10.543Z,102240
2022-12-18T11:34:29.462Z,102240
2022-12-18T11:35:04.469Z,102240
2022-12-18T11:36:01.852Z,102250
2022-12-18T11:37:02.612Z,102250
2022-12-18T11:38:04.575Z,102250
2022-12-18T11:39:05.705Z,102250
2022-12-18T11:40:06.151Z,102250
2022-12-18T11:41:03.873Z,102250
2022-12-18T11:42:05.427Z,102250
2022-12-18T11:43:10.516Z,102250
2022-12-18T11:44:01.982Z,102250
2022-12-18T11:45:03.315Z,102250
2022-12-18T11:46:04.737Z,102250
2022-12-18T11:47:04.531Z,102250
2022-12-18T11:48:10.520Z,102240
2022-12-18T11:49:06.548Z,102240
2022-12-18T11:50:01.728Z,102240
2022-12-18T11:51:03.650Z,102240
2022-12-18T11:52:09.261Z,102250
2022-12-18T11:53:05.664Z,102250
2022-12-18T11:54:00.925Z,102240
2022-12-18T11:55:01.504Z,102240
2022-12-18T11:56:08.042Z,102230
2022-12-18T11:57:01.597Z,102230
2022-12-18T11:58:10.545Z,102230
2022-12-18T11:59:10.547Z,102230
2022-12-18T12:00:10.525Z,102230
2022-12-18T12:01:10.551Z,102230
2022-12-18T12:02:00.745Z,102230
2022-12-18T12:03:10.623Z,102230
2022-12-18T12:04:10.591Z,102230
2022-12-18T12:05:00.654Z,102230
2022-12-18T12:06:01.613Z,102220
2022-12-18T12:07:10.544Z,102220
2022-12-18T12:08:10.523Z,102220
2022-12-18T12:09:06.789Z,102220
2022-12-18T12:10:05.290Z,102220
2022-12-18T12:11:01.576Z,102220
2022-12-18T12:12:09.410Z,102210
2022-12-18T12:13:10.523Z,102210
2022-12-18T12:14:10.544Z,102200
2022-12-18T12:15:10.071Z,102200
2022-12-18T12:16:01.627Z,102190
2022-12-18T12:17:00.596Z,102190
2022-12-18T12:18:00.620Z,102190
2022-12-18T12:19:00.574Z,102190
2022-12-18T12:20:05.888Z,102190
2022-12-18T12:21:00.587Z,102190
2022-12-18T12:22:09.355Z,102190
2022-12-18T12:23:05.937Z,102190
2022-12-18T12:24:10.521Z,102190
2022-12-18T12:25:10.550Z,102190
2022-12-18T12:26:10.522Z,102190
2022-12-18T12:27:06.688Z,102190
2022-12-18T12:28:10.524Z,102190
2022-12-18T12:29:10.727Z,102190
2022-12-18T12:30:04.274Z,102190
2022-12-18T12:31:07.647Z,102190
2022-12-18T12:32:10.542Z,102180
2022-12-18T12:33:10.547Z,102180
2022-12-18T12:34:07.603Z,102180